Time;durP1;ratioP1;P1;durP2;ratioP2;P2;SDS_P1;SDS_P2;PMS_P1;PMS_P2;Temp;Humidity;BMP_temperature;BMP_pressure;BME280_temperature;BME280_humidity;BME280_pressure;Samples;Min_cycle;Max_cycle;Signal;HPM_P1;HPM_P2
2023/03/21 00:00:39;;;;;;;6.15;2.78;;;;;;;6.79;100.00;98672.66;4159068;28;20172;-72
2023/03/21 00:02:39;;;;;;;4.25;2.50;;;;;;;6.80;100.00;98663.25;4158135;28;20439;-72
2023/03/21 00:04:39;;;;;;;5.82;2.42;;;;;;;6.84;100.00;98668.84;4158359;28;20389;-72
2023/03/21 00:06:40;;;;;;;7.40;3.00;;;;;;;6.82;100.00;98655.44;4159053;28;20103;-72
2023/03/21 00:08:40;;;;;;;5.35;2.30;;;;;;;6.81;100.00;98659.34;4158131;28;20049;-72
2023/03/21 00:10:40;;;;;;;4.75;2.63;;;;;;;6.76;100.00;98656.81;4158620;28;20121;-72
2023/03/21 00:12:41;;;;;;;6.57;2.80;;;;;;;6.82;100.00;98654.63;4158124;28;20046;-72
2023/03/21 00:14:42;;;;;;;3.75;2.10;;;;;;;6.80;100.00;98654.19;4158496;28;20630;-72
2023/03/21 00:16:44;;;;;;;6.55;3.10;;;;;;;6.79;100.00;98647.91;4158560;28;20037;-71
2023/03/21 00:18:47;;;;;;;4.53;2.50;;;;;;;6.79;100.00;98656.16;4158111;28;20037;-72
2023/03/21 00:20:57;;;;;;;7.25;3.65;;;;;;;6.82;100.00;98649.94;4157972;28;20557;-72
2023/03/21 00:22:57;;;;;;;3.90;2.60;;;;;;;6.80;100.00;98649.50;4157345;28;20107;-72
2023/03/21 00:24:57;;;;;;;5.07;2.40;;;;;;;6.85;100.00;98654.72;4159132;28;20041;-72
2023/03/21 00:26:58;;;;;;;7.93;2.85;;;;;;;6.82;100.00;98644.44;4157856;28;20038;-72
2023/03/21 00:28:58;;;;;;;4.85;3.10;;;;;;;6.84;100.00;98641.34;4158075;28;20044;-71
2023/03/21 00:30:59;;;;;;;7.40;3.08;;;;;;;6.84;100.00;98647.63;4158638;28;20041;-72
2023/03/21 00:33:00;;;;;;;4.95;2.75;;;;;;;6.80;100.00;98649.50;4157282;28;20103;-72
2023/03/21 00:35:00;;;;;;;6.22;2.90;;;;;;;6.81;100.00;98647.53;4158441;28;20069;-72
2023/03/21 00:37:00;;;;;;;5.63;2.80;;;;;;;6.79;100.00;98650.66;4157530;28;20050;-72
2023/03/21 00:39:05;;;;;;;4.55;2.55;;;;;;;6.84;100.00;98644.88;4158360;28;20058;-72
2023/03/21 00:41:07;;;;;;;4.07;2.28;;;;;;;6.84;100.00;98647.63;4158519;28;20046;-72
2023/03/21 00:43:07;;;;;;;4.93;2.65;;;;;;;6.81;100.00;98648.34;4157118;28;20041;-72
2023/03/21 00:45:09;;;;;;;3.45;2.33;;;;;;;6.83;100.00;98642.47;4157731;28;20417;-71
2023/03/21 00:47:11;;;;;;;3.75;2.38;;;;;;;6.83;100.00;98646.03;4158205;28;20052;-72
2023/03/21 00:49:11;;;;;;;6.22;2.40;;;;;;;6.79;100.00;98639.66;4158279;28;20382;-72
2023/03/21 00:51:20;;;;;;;4.95;2.22;;;;;;;6.81;100.00;98631.84;4157529;28;20049;-71
2023/03/21 00:53:23;;;;;;;4.00;2.50;;;;;;;6.81;100.00;98637.34;4157562;28;20071;-72
2023/03/21 00:55:23;;;;;;;4.35;2.70;;;;;;;6.80;100.00;98641.25;4157719;28;20043;-71
2023/03/21 00:57:24;;;;;;;4.63;2.40;;;;;;;6.78;100.00;98640.78;4158106;28;20077;-72
2023/03/21 00:59:24;;;;;;;5.45;2.60;;;;;;;6.75;100.00;98638.72;4157691;28;20056;-72
2023/03/21 01:01:25;;;;;;;6.95;2.83;;;;;;;6.80;100.00;98635.75;4157781;28;20045;-71
2023/03/21 01:03:25;;;;;;;7.25;3.20;;;;;;;6.80;100.00;98633.00;4157570;28;20038;-71
2023/03/21 01:07:51;;;;;;;10.60;4.78;;;;;;;6.79;100.00;98636.09;4157782;28;20055;-72
2023/03/21 01:09:52;;;;;;;20.17;6.78;;;;;;;6.82;100.00;98627.13;4157892;28;20061;-72
2023/03/21 01:11:53;;;;;;;18.55;6.10;;;;;;;6.79;100.00;98628.66;4157859;28;20542;-72
2023/03/21 01:13:54;;;;;;;14.75;5.68;;;;;;;6.78;100.00;98629.78;4157410;28;20041;-72
2023/03/21 01:15:56;;;;;;;12.40;5.50;;;;;;;6.74;100.00;98631.63;4157646;28;20469;-72
2023/03/21 01:17:56;;;;;;;11.90;5.20;;;;;;;6.73;100.00;98622.59;4157650;28;20041;-72
2023/03/21 01:19:56;;;;;;;12.15;5.38;;;;;;;6.73;100.00;98627.28;4157440;28;20588;-72
2023/03/21 01:21:57;;;;;;;16.75;6.93;;;;;;;6.72;100.00;98618.25;4157549;28;20037;-71
2023/03/21 01:23:57;;;;;;;14.98;6.05;;;;;;;6.73;100.00;98613.53;4157425;28;20052;-72
2023/03/21 01:25:57;;;;;;;10.68;4.50;;;;;;;6.69;100.00;98604.38;4157265;28;20428;-72
2023/03/21 01:27:58;;;;;;;11.88;4.70;;;;;;;6.76;100.00;98621.88;4157873;28;20128;-72
2023/03/21 01:29:58;;;;;;;9.68;4.43;;;;;;;6.74;100.00;98620.63;4157642;28;20104;-72
2023/03/21 01:31:59;;;;;;;12.85;4.38;;;;;;;6.75;100.00;98614.78;4157447;28;20401;-71
2023/03/21 01:33:59;;;;;;;16.83;7.28;;;;;;;6.75;100.00;98611.22;4157310;28;20804;-72
2023/03/21 01:36:00;;;;;;;13.27;5.40;;;;;;;6.72;100.00;98611.94;4156899;28;20437;-72
2023/03/21 01:38:00;;;;;;;18.65;6.68;;;;;;;6.70;100.00;98611.47;4157287;28;20044;-72
2023/03/21 01:40:01;;;;;;;17.42;5.43;;;;;;;6.68;100.00;98609.06;4157950;28;20354;-72
2023/03/21 01:42:02;;;;;;;15.60;5.50;;;;;;;6.72;100.00;98621.00;4157533;28;20183;-72
2023/03/21 01:44:03;;;;;;;12.93;5.85;;;;;;;6.67;100.00;98615.72;4157347;28;20464;-72
2023/03/21 01:46:09;;;;;;;16.55;5.75;;;;;;;6.74;100.00;98615.13;4157031;28;20037;-72
2023/03/21 01:48:10;;;;;;;15.77;5.43;;;;;;;6.74;100.00;98612.38;4157148;28;20033;-72
2023/03/21 01:50:11;;;;;;;12.52;4.65;;;;;;;6.71;100.00;98610.34;4157639;28;20052;-71
2023/03/21 01:52:16;;;;;;;12.02;4.40;;;;;;;6.73;100.00;98614.34;4157386;28;20034;-72
2023/03/21 01:54:24;;;;;;;10.80;3.67;;;;;;;6.72;100.00;98610.00;4156545;28;20057;-72
2023/03/21 01:56:33;;;;;;;8.32;3.60;;;;;;;6.68;100.00;98605.53;4157519;28;20402;-71
2023/03/21 01:58:34;;;;;;;10.75;4.00;;;;;;;6.68;100.00;98609.06;4159963;28;20037;-71
2023/03/21 02:00:36;;;;;;;8.55;3.83;;;;;;;6.72;100.00;98610.00;4160736;28;20033;-72
2023/03/21 02:02:36;;;;;;;9.65;4.60;;;;;;;6.69;100.00;98605.16;4159838;28;20049;-72
2023/03/21 02:04:37;;;;;;;5.45;3.00;;;;;;;6.73;100.00;98608.03;4160056;28;20037;-72
2023/03/21 02:06:57;;;;;;;7.13;3.17;;;;;;;6.71;100.00;98605.63;4160365;28;20048;-72
2023/03/21 02:09:03;;;;;;;7.70;3.58;;;;;;;6.73;100.00;98597.84;4160322;28;20046;-71
2023/03/21 02:11:04;;;;;;;5.70;2.75;;;;;;;6.70;100.00;98592.22;4160559;28;20045;-72
2023/03/21 02:13:09;;;;;;;5.47;2.38;;;;;;;6.69;100.00;98591.41;4160043;28;20136;-72
2023/03/21 02:15:10;;;;;;;4.60;2.60;;;;;;;6.70;100.00;98593.03;4160348;28;20474;-71
2023/03/21 02:17:58;;;;;;;4.80;2.50;;;;;;;6.73;100.00;98595.09;4160512;28;20122;-71
2023/03/21 02:20:13;;;;;;;3.30;2.20;;;;;;;6.72;100.00;98587.19;4158542;28;20286;-71
2023/03/21 02:22:34;;;;;;;5.28;2.30;;;;;;;6.69;100.00;98576.88;4159480;28;20423;-71
2023/03/21 02:25:12;;;;;;;4.25;2.53;;;;;;;6.70;100.00;98570.22;4159829;28;20049;-71
2023/03/21 02:27:20;;;;;;;8.45;2.70;;;;;;;6.69;100.00;98580.41;4159791;28;20452;-71
2023/03/21 02:29:51;;;;;;;6.65;2.70;;;;;;;6.72;100.00;98578.94;4160491;28;20248;-71
2023/03/21 02:32:20;;;;;;;5.38;2.95;;;;;;;6.74;100.00;98574.69;4160243;28;20045;-71
2023/03/21 02:34:27;;;;;;;6.15;2.90;;;;;;;6.74;100.00;98573.88;4158443;28;20057;-72
2023/03/21 02:36:58;;;;;;;6.53;3.00;;;;;;;6.73;100.00;98575.03;4158669;28;20096;-72
2023/03/21 02:39:25;;;;;;;7.70;2.92;;;;;;;6.77;100.00;98573.16;4159056;28;20053;-72
2023/03/21 02:41:39;;;;;;;5.68;2.47;;;;;;;6.78;100.00;98569.28;4159136;28;20125;-71
2023/03/21 02:43:55;;;;;;;4.90;2.58;;;;;;;6.77;100.00;98575.91;4159274;28;20041;-71
2023/03/21 02:46:18;;;;;;;5.65;2.50;;;;;;;6.73;100.00;98569.53;4159836;28;20551;-71
2023/03/21 02:48:28;;;;;;;4.70;2.22;;;;;;;6.72;100.00;98571.50;4159993;28;20087;-71
2023/03/21 02:50:51;;;;;;;2.90;2.10;;;;;;;6.69;100.00;98571.38;4160606;28;20128;-71
2023/03/21 02:52:53;;;;;;;4.18;2.10;;;;;;;6.72;100.00;98567.94;4159474;28;20052;-71
2023/03/21 02:54:56;;;;;;;6.43;2.60;;;;;;;6.71;100.00;98578.16;4159696;28;20140;-71
2023/03/21 02:56:59;;;;;;;3.60;2.70;;;;;;;6.70;100.00;98568.28;4159911;28;20432;-71
2023/03/21 02:59:02;;;;;;;3.53;2.38;;;;;;;6.71;100.00;98574.59;4159619;28;20034;-71
2023/03/21 03:01:05;;;;;;;5.15;2.50;;;;;;;6.70;100.00;98576.53;4160100;28;20355;-71
2023/03/21 03:03:06;;;;;;;5.03;2.60;;;;;;;6.71;100.00;98578.16;4159038;28;20045;-71
2023/03/21 03:05:16;;;;;;;3.42;2.38;;;;;;;6.71;100.00;98580.91;4159112;28;20045;-71
2023/03/21 03:07:34;;;;;;;3.90;2.30;;;;;;;6.69;100.00;98580.41;4159772;28;20473;-71
2023/03/21 03:09:43;;;;;;;4.07;2.38;;;;;;;6.67;100.00;98568.97;4159565;28;20102;-71
2023/03/21 03:11:45;;;;;;;7.15;2.67;;;;;;;6.68;100.00;98567.03;4159999;28;20050;-71
2023/03/21 03:14:22;;;;;;;7.25;2.28;;;;;;;6.66;100.00;98561.88;4159003;28;20037;-71
2023/03/21 03:16:43;;;;;;;5.97;2.20;;;;;;;6.68;100.00;98564.28;4142680;28;20081;-71
2023/03/21 03:18:51;;;;;;;3.60;1.95;;;;;;;6.66;100.00;98561.09;4143107;28;20080;-71
2023/03/21 03:21:13;;;;;;;8.80;2.40;;;;;;;6.69;100.00;98563.13;4143173;28;20425;-71
2023/03/21 03:23:52;;;;;;;5.35;2.10;;;;;;;6.69;100.00;98563.94;4142931;28;20058;-71
2023/03/21 03:26:01;;;;;;;6.63;2.83;;;;;;;6.70;100.00;98567.47;4142682;28;20045;-71
2023/03/21 03:28:05;;;;;;;6.50;2.85;;;;;;;6.69;100.00;98560.38;4142701;28;20034;-71
2023/03/21 03:30:08;;;;;;;4.38;2.40;;;;;;;6.71;100.00;98561.66;4143008;28;20327;-71
2023/03/21 03:32:19;;;;;;;4.78;2.70;;;;;;;6.67;100.00;98554.44;4142573;28;20176;-71
2023/03/21 03:34:25;;;;;;;7.00;3.22;;;;;;;6.68;100.00;98550.53;4142538;28;20040;-71
2023/03/21 03:36:34;;;;;;;4.85;2.58;;;;;;;6.69;100.00;98563.94;4142652;28;20054;-71
2023/03/21 03:38:37;;;;;;;6.85;2.40;;;;;;;6.64;100.00;98555.94;4142720;28;20435;-71
2023/03/21 03:40:48;;;;;;;4.43;2.83;;;;;;;6.64;100.00;98558.69;4142636;28;20124;-71
2023/03/21 03:42:51;;;;;;;4.63;2.40;;;;;;;6.61;100.00;98556.63;4142718;28;20042;-71
2023/03/21 03:44:51;;;;;;;4.60;2.92;;;;;;;6.59;100.00;98550.69;4150221;28;20125;-71
2023/03/21 03:46:58;;;;;;;4.43;2.42;;;;;;;6.61;100.00;98564.88;4158446;28;20061;-71
2023/03/21 03:49:08;;;;;;;11.68;3.22;;;;;;;6.60;100.00;98560.53;4159230;28;20041;-71
2023/03/21 03:51:21;;;;;;;6.28;2.60;;;;;;;6.60;100.00;98556.97;4158900;28;20045;-71
2023/03/21 03:53:27;;;;;;;5.53;2.90;;;;;;;6.58;100.00;98556.53;4158050;28;20037;-71
2023/03/21 03:55:33;;;;;;;4.88;2.47;;;;;;;6.57;100.00;98560.44;4158540;28;20375;-71
2023/03/21 03:57:33;;;;;;;5.78;2.47;;;;;;;6.57;100.00;98560.44;4159124;28;20057;-71
2023/03/21 03:59:39;;;;;;;5.40;2.42;;;;;;;6.53;100.00;98548.53;4157908;28;20498;-71
2023/03/21 04:01:40;;;;;;;4.05;2.15;;;;;;;6.56;100.00;98548.66;4158772;28;20034;-71
2023/03/21 04:03:44;;;;;;;5.00;2.45;;;;;;;6.56;100.00;98548.66;4158327;28;20125;-71
2023/03/21 04:05:45;;;;;;;6.20;2.50;;;;;;;6.56;100.00;98554.16;4158541;28;20042;-71
2023/03/21 04:07:51;;;;;;;3.17;2.40;;;;;;;6.56;100.00;98550.59;4158905;28;20087;-71
2023/03/21 04:09:52;;;;;;;4.72;2.10;;;;;;;6.58;100.00;98551.84;4157603;28;20069;-71
2023/03/21 04:11:52;;;;;;;4.28;2.50;;;;;;;6.58;100.00;98546.34;4158575;28;20041;-71
2023/03/21 04:13:52;;;;;;;7.40;2.80;;;;;;;6.55;100.00;98543.50;4158217;28;20088;-71
2023/03/21 04:15:52;;;;;;;4.13;2.63;;;;;;;6.59;100.00;98544.38;4158131;28;20045;-71
2023/03/21 04:17:53;;;;;;;7.82;2.85;;;;;;;6.57;100.00;98543.94;4158245;28;20128;-72
2023/03/21 04:19:53;;;;;;;3.88;2.40;;;;;;;6.60;100.00;98548.72;4158056;28;20152;-71
2023/03/21 04:21:53;;;;;;;5.85;2.45;;;;;;;6.59;100.00;98536.94;4158480;28;20052;-71
2023/03/21 04:23:54;;;;;;;4.60;2.33;;;;;;;6.61;100.00;98548.38;4157576;28;20042;-71
2023/03/21 04:25:55;;;;;;;4.38;2.20;;;;;;;6.60;100.00;98543.22;4158625;28;20646;-71
2023/03/21 04:27:55;;;;;;;3.83;2.22;;;;;;;6.62;100.00;98547.25;4158270;28;20069;-71
2023/03/21 04:29:55;;;;;;;5.10;2.63;;;;;;;6.61;100.00;98537.38;4158269;28;20048;-71
2023/03/21 04:31:56;;;;;;;4.72;2.30;;;;;;;6.57;100.00;98527.44;4158156;28;20343;-71
2023/03/21 04:33:58;;;;;;;3.53;2.13;;;;;;;6.61;100.00;98533.84;4157764;28;20045;-71
2023/03/21 04:35:58;;;;;;;4.78;2.20;;;;;;;6.63;100.00;98534.31;4158042;28;20087;-71
2023/03/21 04:37:59;;;;;;;3.13;2.17;;;;;;;6.64;100.00;98539.44;4157550;28;20049;-71
2023/03/21 04:39:59;;;;;;;4.05;2.60;;;;;;;6.61;100.00;98528.34;4158265;28;20037;-71
2023/03/21 04:42:00;;;;;;;7.47;2.72;;;;;;;6.60;100.00;98529.50;4158266;28;20099;-71
2023/03/21 04:44:00;;;;;;;6.68;2.47;;;;;;;6.59;100.00;98534.19;4157083;28;20036;-71
2023/03/21 04:46:01;;;;;;;4.28;2.25;;;;;;;6.57;100.00;98536.50;4157550;28;20146;-71
2023/03/21 04:48:02;;;;;;;4.20;2.88;;;;;;;6.59;100.00;98542.44;4158292;28;20156;-71
2023/03/21 04:50:03;;;;;;;6.90;2.72;;;;;;;6.59;100.00;98527.91;4157869;28;20033;-71
2023/03/21 04:52:04;;;;;;;5.25;2.38;;;;;;;6.57;100.00;98538.44;4158181;28;20504;-71
2023/03/21 04:54:05;;;;;;;4.20;2.30;;;;;;;6.56;100.00;98542.34;4157982;28;20029;-71
2023/03/21 04:56:06;;;;;;;4.70;2.70;;;;;;;6.56;100.00;98532.16;4158901;28;20112;-71
2023/03/21 04:58:06;;;;;;;4.72;2.72;;;;;;;6.56;100.00;98543.16;4157662;28;20044;-71
2023/03/21 05:00:09;;;;;;;4.32;2.53;;;;;;;6.57;100.00;98530.19;4158145;28;20036;-71
2023/03/21 05:02:09;;;;;;;7.82;2.63;;;;;;;6.57;100.00;98542.00;4158445;28;20064;-71
2023/03/21 05:04:12;;;;;;;3.33;2.20;;;;;;;6.57;100.00;98535.69;4157265;28;20822;-71
2023/03/21 05:06:12;;;;;;;3.45;2.35;;;;;;;6.56;100.00;98534.09;4157913;28;20057;-71
2023/03/21 05:08:13;;;;;;;4.82;2.30;;;;;;;6.56;100.00;98532.16;4158356;28;20036;-71
2023/03/21 05:10:14;;;;;;;5.25;2.88;;;;;;;6.55;100.00;98527.81;4157685;28;20037;-71
2023/03/21 05:12:14;;;;;;;5.82;2.65;;;;;;;6.57;100.00;98538.44;4157069;28;20033;-71
2023/03/21 05:14:19;;;;;;;3.85;2.28;;;;;;;6.54;100.00;98533.63;4157072;28;20087;-71
2023/03/21 05:16:19;;;;;;;5.82;2.47;;;;;;;6.56;100.00;98545.09;4159231;28;20045;-71
2023/03/21 05:18:23;;;;;;;4.75;2.40;;;;;;;6.54;100.00;98534.47;4157844;28;20022;-71
2023/03/21 05:20:24;;;;;;;4.55;2.47;;;;;;;6.51;100.00;98537.09;4157810;28;20534;-71
2023/03/21 05:22:27;;;;;;;5.88;2.60;;;;;;;6.50;100.00;98533.53;4157304;28;20038;-71
2023/03/21 05:24:27;;;;;;;5.85;2.78;;;;;;;6.51;100.00;98537.88;4157180;28;20148;-71
2023/03/21 05:26:28;;;;;;;8.55;2.88;;;;;;;6.48;100.00;98544.09;4157821;28;20073;-71
2023/03/21 05:28:30;;;;;;;4.30;2.45;;;;;;;6.46;100.00;98532.66;4157406;28;20042;-71
2023/03/21 05:30:31;;;;;;;5.97;2.50;;;;;;;6.44;100.00;98530.22;4157612;28;20052;-71
2023/03/21 05:32:31;;;;;;;8.02;2.97;;;;;;;6.47;100.00;98537.81;4160852;28;20054;-71
2023/03/21 05:34:32;;;;;;;7.88;2.42;;;;;;;6.46;100.00;98524.41;4161104;28;20069;-71
2023/03/21 05:36:34;;;;;;;4.40;3.13;;;;;;;6.47;100.00;98535.06;4161043;28;20041;-71
2023/03/21 05:38:35;;;;;;;5.78;2.70;;;;;;;6.46;100.00;98538.16;4159769;28;20038;-71
2023/03/21 05:40:35;;;;;;;8.05;2.70;;;;;;;6.44;100.00;98535.72;4161301;28;20057;-71
2023/03/21 05:42:35;;;;;;;7.38;2.75;;;;;;;6.46;100.00;98538.16;4160176;28;20107;-71
2023/03/21 05:44:36;;;;;;;12.95;2.92;;;;;;;6.47;100.00;98542.50;4161026;28;20570;-71
2023/03/21 05:46:36;;;;;;;5.32;3.00;;;;;;;6.46;100.00;98538.94;4160701;28;20064;-71
2023/03/21 05:48:37;;;;;;;5.28;2.40;;;;;;;6.48;100.00;98544.88;4160977;28;20486;-71
2023/03/21 05:50:38;;;;;;;6.20;3.20;;;;;;;6.51;100.00;98539.84;4160834;28;20452;-71
2023/03/21 05:52:39;;;;;;;5.63;2.50;;;;;;;6.52;100.00;98546.94;4160149;28;20060;-71
2023/03/21 05:54:39;;;;;;;7.60;2.75;;;;;;;6.53;100.00;98549.31;4161142;28;20045;-71
2023/03/21 05:56:39;;;;;;;3.50;2.80;;;;;;;6.52;100.00;98546.94;4160159;28;20095;-71
2023/03/21 05:58:40;;;;;;;6.72;2.60;;;;;;;6.50;100.00;98558.28;4161069;28;20119;-71
2023/03/21 06:00:40;;;;;;;7.88;2.70;;;;;;;6.53;100.00;98548.53;4160770;28;20164;-71
2023/03/21 06:02:40;;;;;;;5.38;2.83;;;;;;;6.54;100.00;98548.19;4159822;28;20041;-71
2023/03/21 06:04:41;;;;;;;6.13;2.55;;;;;;;6.55;100.00;98549.78;4160638;28;20470;-71
2023/03/21 06:06:41;;;;;;;7.97;2.55;;;;;;;6.56;100.00;98540.41;4160721;28;20470;-71
2023/03/21 06:08:41;;;;;;;8.32;2.85;;;;;;;6.58;100.00;98532.59;4102006;28;20053;-71
2023/03/21 06:10:42;;;;;;;6.28;2.85;;;;;;;6.60;100.00;98544.03;4159922;28;20042;-71
2023/03/21 06:12:42;;;;;;;5.60;2.75;;;;;;;6.61;100.00;98537.38;4159638;28;20470;-71
2023/03/21 06:14:42;;;;;;;6.22;3.30;;;;;;;6.63;100.00;98543.34;4160590;28;20124;-71
2023/03/21 06:16:43;;;;;;;5.38;2.80;;;;;;;6.64;100.00;98546.91;4160114;28;20077;-71
2023/03/21 06:18:43;;;;;;;5.38;2.65;;;;;;;6.67;100.00;98544.22;4160272;28;20053;-71
2023/03/21 06:20:44;;;;;;;5.68;2.72;;;;;;;6.68;100.00;98534.84;4161019;28;20033;-71
2023/03/21 06:22:44;;;;;;;5.85;3.10;;;;;;;6.73;100.00;98544.78;4159792;28;20030;-71
2023/03/21 06:24:44;;;;;;;8.43;2.72;;;;;;;6.74;100.00;98538.13;4160019;28;20135;-71
2023/03/21 06:26:45;;;;;;;6.28;2.92;;;;;;;6.79;100.00;98537.91;4159902;28;20041;-71
2023/03/21 06:28:45;;;;;;;7.32;2.97;;;;;;;6.85;100.00;98543.91;4159899;28;20135;-71
2023/03/21 06:30:45;;;;;;;3.97;2.50;;;;;;;6.90;100.00;98535.44;4160457;28;20119;-71
2023/03/21 06:32:46;;;;;;;6.82;2.92;;;;;;;6.95;100.00;98535.16;4159130;28;20132;-71
2023/03/21 06:34:46;;;;;;;7.40;3.30;;;;;;;6.99;100.00;98531.34;4191402;28;20048;-71
2023/03/21 06:36:46;;;;;;;7.45;3.00;;;;;;;7.03;100.00;98536.94;4160159;28;20069;-71
2023/03/21 06:38:47;;;;;;;9.13;3.30;;;;;;;7.11;100.00;98546.97;4159908;28;20503;-71
2023/03/21 06:40:48;;;;;;;8.95;3.33;;;;;;;7.14;100.00;98546.28;4159085;28;20435;-71
2023/03/21 06:42:48;;;;;;;4.95;2.72;;;;;;;7.20;100.00;98538.56;4158761;28;20492;-71
2023/03/21 06:44:49;;;;;;;3.97;2.90;;;;;;;7.22;100.00;98541.78;4160066;28;20049;-71
2023/03/21 06:46:50;;;;;;;9.68;4.35;;;;;;;7.27;100.00;98549.75;4160702;28;20417;-71
2023/03/21 06:48:51;;;;;;;5.95;3.83;;;;;;;7.31;100.00;98543.19;4159474;28;20446;-71
2023/03/21 06:50:52;;;;;;;7.20;3.95;;;;;;;7.33;100.00;98538.13;4160037;28;20075;-71
2023/03/21 06:52:53;;;;;;;5.70;3.70;;;;;;;7.39;100.00;98544.16;4159333;28;20494;-71
2023/03/21 06:54:53;;;;;;;9.00;4.07;;;;;;;7.42;100.00;98539.91;4159572;28;20572;-71
2023/03/21 06:56:53;;;;;;;7.72;2.83;;;;;;;7.50;100.00;98544.44;4160065;28;20041;-71
2023/03/21 06:58:54;;;;;;;6.25;3.40;;;;;;;7.55;100.00;98544.16;4159812;28;20091;-71
2023/03/21 07:00:57;;;;;;;6.68;3.63;;;;;;;7.60;100.00;98550.19;4160315;28;20055;-71
2023/03/21 07:02:59;;;;;;;8.43;3.45;;;;;;;7.66;100.00;98550.72;4158960;28;20045;-71
2023/03/21 07:05:00;;;;;;;6.25;3.15;;;;;;;7.69;100.00;98540.94;4159649;28;20088;-71
2023/03/21 07:07:00;;;;;;;5.88;3.15;;;;;;;7.73;100.00;98541.84;4159503;28;20386;-71
2023/03/21 07:09:01;;;;;;;4.35;2.95;;;;;;;7.83;100.00;98546.78;4160054;28;20042;-71
2023/03/21 07:11:01;;;;;;;5.90;2.97;;;;;;;7.92;100.00;98539.13;4159711;28;20073;-71
2023/03/21 07:13:01;;;;;;;9.82;3.25;;;;;;;7.97;100.00;98547.13;4158636;28;20039;-71
2023/03/21 07:15:03;;;;;;;7.13;3.15;;;;;;;7.99;100.00;98541.25;4159830;28;20057;-71
2023/03/21 07:17:03;;;;;;;6.82;3.08;;;;;;;8.03;100.00;98542.16;4159675;28;20046;-71
2023/03/21 07:19:05;;;;;;;6.68;3.05;;;;;;;8.08;100.00;98547.34;4159633;28;20052;-71
2023/03/21 07:21:06;;;;;;;7.78;3.30;;;;;;;8.15;100.00;98545.56;4159421;28;20454;-71
2023/03/21 07:23:07;;;;;;;9.52;3.10;;;;;;;8.23;100.00;98534.69;4158091;28;20077;-71
2023/03/21 07:25:09;;;;;;;6.78;3.17;;;;;;;8.31;100.00;98539.19;4159294;28;20045;-71
2023/03/21 07:27:09;;;;;;;5.85;3.20;;;;;;;8.33;100.00;98534.91;4159437;28;20113;-71
2023/03/21 07:29:09;;;;;;;5.00;2.33;;;;;;;8.39;100.00;98532.72;4159334;28;20049;-71
2023/03/21 07:31:15;;;;;;;8.05;3.65;;;;;;;8.46;100.00;98532.88;4159786;28;20037;-71
2023/03/21 07:33:15;;;;;;;5.50;2.60;;;;;;;8.46;100.00;98526.56;4158525;28;20044;-71
2023/03/21 07:35:17;;;;;;;12.20;3.75;;;;;;;8.54;100.00;98528.28;4159189;28;20500;-71
2023/03/21 07:37:17;;;;;;;5.90;2.78;;;;;;;8.53;100.00;98519.22;4159192;28;20057;-71
2023/03/21 07:39:19;;;;;;;9.38;2.95;;;;;;;8.58;100.00;98524.44;4159244;28;20056;-71
2023/03/21 07:41:19;;;;;;;4.43;2.88;;;;;;;8.57;100.00;98520.09;4159152;28;20098;-71
2023/03/21 07:43:20;;;;;;;7.03;2.70;;;;;;;8.61;99.92;98533.97;4158414;28;20134;-71
2023/03/21 07:45:22;;;;;;;5.93;3.28;;;;;;;8.60;99.83;98518.53;4159400;28;20049;-71
2023/03/21 07:47:22;;;;;;;7.40;3.80;;;;;;;8.60;99.41;98521.31;4159534;28;20038;-71
2023/03/21 07:49:23;;;;;;;8.73;3.35;;;;;;;8.60;99.23;98522.09;4159014;28;20126;-71
2023/03/21 07:51:23;;;;;;;4.97;3.00;;;;;;;8.63;98.29;98520.59;4158883;28;20671;-71
2023/03/21 07:53:25;;;;;;;5.15;2.85;;;;;;;8.69;99.23;98527.41;4158244;28;20565;-72
2023/03/21 07:55:26;;;;;;;4.35;2.85;;;;;;;8.76;99.34;98519.25;4157686;28;20381;-71
2023/03/21 07:57:27;;;;;;;7.80;2.67;;;;;;;8.82;98.56;98506.78;4158912;28;20037;-71
2023/03/21 07:59:27;;;;;;;6.15;2.92;;;;;;;8.95;98.83;98513.72;4158808;28;20127;-71
2023/03/21 08:01:27;;;;;;;5.20;3.97;;;;;;;9.08;99.33;98519.06;4159183;28;20467;-71
2023/03/21 08:03:28;;;;;;;4.68;2.88;;;;;;;9.15;100.00;98508.16;4158288;28;20746;-71
2023/03/21 08:05:33;;;;;;;6.50;3.08;;;;;;;9.24;99.28;98516.97;4158505;28;20386;-71
2023/03/21 08:07:34;;;;;;;6.05;2.80;;;;;;;9.32;98.93;98512.38;4158568;28;20250;-71
2023/03/21 08:09:35;;;;;;;6.78;2.88;;;;;;;9.36;99.18;98513.25;4158813;28;20115;-71
2023/03/21 08:11:35;;;;;;;5.20;2.90;;;;;;;9.42;100.00;98511.75;4158583;28;20046;-71
2023/03/21 08:13:35;;;;;;;5.70;2.70;;;;;;;9.46;99.13;98518.94;4158377;28;20225;-72
2023/03/21 08:15:36;;;;;;;5.00;2.25;;;;;;;9.52;100.00;98516.69;4159155;28;20049;-71
2023/03/21 08:17:38;;;;;;;6.53;2.60;;;;;;;9.56;100.00;98512.00;4155190;28;20080;-72
2023/03/21 08:19:39;;;;;;;8.02;2.60;;;;;;;9.59;97.79;98511.25;4157258;28;20120;-71
2023/03/21 08:21:39;;;;;;;8.95;2.83;;;;;;;9.64;97.46;98508.19;4157290;28;20067;-72
2023/03/21 08:23:40;;;;;;;5.25;2.30;;;;;;;9.68;97.08;98514.56;4157088;28;20090;-72
2023/03/21 08:25:40;;;;;;;5.10;2.58;;;;;;;9.76;97.36;98516.28;4157524;28;20057;-72
2023/03/21 08:27:41;;;;;;;4.75;2.42;;;;;;;9.83;97.71;98515.56;4157225;28;20049;-72
2023/03/21 08:29:42;;;;;;;6.53;2.95;;;;;;;10.00;96.40;98514.22;4157747;28;20052;-72
2023/03/21 08:31:42;;;;;;;5.93;2.80;;;;;;;10.03;94.87;98514.28;4157354;28;20034;-72
2023/03/21 08:33:42;;;;;;;6.72;3.10;;;;;;;10.01;93.74;98519.41;4156956;28;20033;-71
2023/03/21 08:35:43;;;;;;;5.00;2.67;;;;;;;10.00;94.21;98515.03;4157514;28;20183;-72
2023/03/21 08:37:44;;;;;;;5.93;2.95;;;;;;;10.03;94.78;98511.53;4157434;28;20057;-72
2023/03/21 08:39:44;;;;;;;5.28;2.92;;;;;;;10.05;93.24;98508.38;4157467;28;20054;-72
2023/03/21 08:41:45;;;;;;;7.28;2.78;;;;;;;10.12;93.25;98516.78;4157296;28;20108;-72
2023/03/21 08:43:45;;;;;;;7.05;4.15;;;;;;;10.29;93.58;98519.03;4156791;28;20124;-72
2023/03/21 08:45:45;;;;;;;15.88;7.93;;;;;;;10.48;93.93;98509.75;4157166;28;20103;-72
2023/03/21 08:47:46;;;;;;;7.47;3.80;;;;;;;10.57;91.28;98513.03;4157508;28;20559;-72
2023/03/21 08:49:46;;;;;;;5.65;2.92;;;;;;;10.64;93.14;98496.53;4157964;28;20053;-72
2023/03/21 08:51:47;;;;;;;5.07;2.45;;;;;;;10.71;92.65;98506.88;4156774;28;20050;-72
2023/03/21 08:53:49;;;;;;;8.15;2.85;;;;;;;10.73;93.06;98506.50;4156650;28;20148;-72
2023/03/21 08:55:50;;;;;;;5.97;2.80;;;;;;;10.80;92.83;98515.69;4157105;28;20037;-72
2023/03/21 08:57:50;;;;;;;5.55;2.10;;;;;;;10.79;91.42;98511.31;4157450;28;20029;-72
2023/03/21 08:59:50;;;;;;;4.07;2.42;;;;;;;10.92;91.22;98511.84;4157222;28;20093;-72
2023/03/21 09:01:51;;;;;;;4.55;1.70;;;;;;;10.98;90.85;98513.09;4157062;28;20045;-72
2023/03/21 09:03:51;;;;;;;3.40;2.00;;;;;;;11.07;91.13;98510.81;4157117;28;20436;-72
2023/03/21 09:05:53;;;;;;;4.07;2.13;;;;;;;11.12;91.98;98507.72;4156205;28;20067;-72
2023/03/21 09:07:53;;;;;;;16.97;3.53;;;;;;;11.24;91.16;98518.50;4157252;28;20124;-72
2023/03/21 09:09:54;;;;;;;9.80;2.35;;;;;;;11.33;88.69;98512.63;4157148;28;20776;-72
2023/03/21 09:11:54;;;;;;;5.95;2.33;;;;;;;11.34;89.37;98513.47;4156931;28;20041;-72
2023/03/21 09:13:54;;;;;;;4.95;2.20;;;;;;;11.30;88.89;98509.84;4156388;28;20420;-72
2023/03/21 09:15:56;;;;;;;7.57;3.00;;;;;;;11.38;88.50;98498.44;4157056;28;20030;-72
2023/03/21 09:18:11;;;;;;;5.25;2.20;;;;;;;11.44;89.72;98496.91;4157151;28;20045;-72
2023/03/21 09:20:17;;;;;;;3.40;2.10;;;;;;;11.49;88.89;98491.00;4155289;28;20424;-72
2023/03/21 09:22:22;;;;;;;2.63;1.80;;;;;;;11.46;89.52;98493.75;4156722;28;20032;-72
2023/03/21 09:24:23;;;;;;;3.03;1.55;;;;;;;11.46;88.65;98496.53;4156656;28;20417;-72
2023/03/21 09:26:24;;;;;;;3.63;1.60;;;;;;;11.50;88.37;98495.41;4156963;28;20069;-72
2023/03/21 09:28:26;;;;;;;1.98;1.17;;;;;;;11.65;87.43;98484.41;4156739;28;20041;-72
2023/03/21 09:30:27;;;;;;;1.88;1.48;;;;;;;11.66;88.70;98486.00;4156638;28;20282;-72
2023/03/21 09:32:28;;;;;;;3.35;1.58;;;;;;;11.69;87.16;98476.91;4156680;28;20393;-72
2023/03/21 09:34:28;;;;;;;3.97;1.95;;;;;;;11.79;87.00;98484.50;4156542;28;20037;-72
2023/03/21 09:36:33;;;;;;;4.55;1.65;;;;;;;11.78;88.81;98486.47;4156779;28;20041;-72
2023/03/21 09:38:35;;;;;;;5.78;2.40;;;;;;;11.84;88.24;98486.16;4156799;28;20054;-72
2023/03/21 09:41:03;;;;;;;4.57;2.13;;;;;;;11.90;88.95;98479.06;4156328;28;20044;-72
2023/03/21 09:43:36;;;;;;;5.25;2.20;;;;;;;11.98;89.69;98473.16;4155988;28;20030;-72